Nancy Ann — WDH3524 — position and weather

sailwx.info

Track history (hours):
 
Tides and Currents Weather Stations Pressure Air Temp Water Temp Dewpoint Dewpoint Depression Visibility Wind Speed Wind Dir Waves Ship Positions

Nancy Ann

Owner: Mark Bernert Tugboat Company, St. Helens, OR. More information available from US FCC via Universal Licensing System and Coast Guard Vessel Documentation Center.

Last reported at 2018-Jun-20 16:24 UTC. Time now 2018-Jun-20 19:01 UTC.
Position N 45°48' W 122°51'.

Type: Tug. MMSI: 338205428.

Date/timePositionNaut miles runAvg speedWind from/ knotsBaromVisibWave heightAir tempDewpointWater temp
2018-Jun-20 16:24N 45°48' W 122°51'0 0.2
2018-Jun-20 15:55N 45°48' W 122°51'0 0.2
2018-Jun-20 15:24N 45°48' W 122°51'  
2018-Jun-16 17:30N 45°48' W 122°51'1 1.4
2018-Jun-16 17:01N 45°48' W 122°50'0 0.8
2018-Jun-16 16:30N 45°48' W 122°50'3 5.1
2018-Jun-16 16:00N 45°51' W 122°48'1 3.0
2018-Jun-16 15:31N 45°49' W 122°48'4 7.7
2018-Jun-16 15:00N 45°46' W 122°46'4 7.5
2018-Jun-16 14:31N 45°42' W 122°46'3 6.8
2018-Jun-16 14:00N 45°39' W 122°44'4 7.9
2018-Jun-16 13:31N 45°37' W 122°39'4 8.4
2018-Jun-16 13:00N 45°36' W 122°34'4 8.6
2018-Jun-16 12:30N 45°34' W 122°28'1 1.8
2018-Jun-16 12:00N 45°34' W 122°27'0 0.0
2018-Jun-16 06:56N 45°34' W 122°27'0 0.0
2018-Jun-16 06:30N 45°34' W 122°27'1 2.7
2018-Jun-16 06:00N 45°35' W 122°28'2 3.4
2018-Jun-16 05:30N 45°35' W 122°31'2 3.5
2018-Jun-16 05:00N 45°36' W 122°33'2 3.4
2018-Jun-16 04:30N 45°36' W 122°35'2 3.7
2018-Jun-16 04:00N 45°36' W 122°38'2 3.8
2018-Jun-16 03:30N 45°37' W 122°40'2 4.2
2018-Jun-16 03:01N 45°38' W 122°43'2 4.5
2018-Jun-16 02:30N 45°40' W 122°46'3 4.7
2018-Jun-16 01:55N 45°42' W 122°46'2 4.7
2018-Jun-16 01:30N 45°44' W 122°46'2 4.5
2018-Jun-16 01:00N 45°46' W 122°46'2 4.4
2018-Jun-16 00:30N 45°48' W 122°48'2 4.2
2018-Jun-16 00:00N 45°51' W 122°47'1 1.2
2018-Jun-15 23:30N 45°51' W 122°48'2 4.7
2018-Jun-15 23:00N 45°48' W 122°50'1 2.1
2018-Jun-15 22:31N 45°48' W 122°51'0 0.0
2018-Jun-15 16:48N 45°48' W 122°51'0 0.1
2018-Jun-15 16:30N 45°48' W 122°51'2 2.7
2018-Jun-15 15:51N 45°48' W 122°48'2 6.2
2018-Jun-15 15:30N 45°46' W 122°49'3 5.3
2018-Jun-15 15:01N 45°44' W 122°52'3 6.1
2018-Jun-15 14:30N 45°41' W 122°52'3 6.2
2018-Jun-15 14:01N 45°38' W 122°49'3 6.3
2018-Jun-15 13:30N 45°36' W 122°46'3 5.1
2018-Jun-15 13:00N 45°34' W 122°44'0 0.0
2018-Jun-15 07:42N 45°34' W 122°44'0 0.2
2018-Jun-15 07:29N 45°34' W 122°44'1 3.0
2018-Jun-15 06:59N 45°35' W 122°45'3 5.2
2018-Jun-15 06:30N 45°37' W 122°48'2 4.1
2018-Jun-15 06:00N 45°39' W 122°49'2 4.1
2018-Jun-15 05:30N 45°40' W 122°51'2 3.9
2018-Jun-15 05:00N 45°42' W 122°52'2 3.8
2018-Jun-15 04:31N 45°44' W 122°51'2 3.4
2018-Jun-15 04:00N 45°45' W 122°50'3 3.5
2018-Jun-15 03:03N 45°48' W 122°48'0 4.6
2018-Jun-15 03:00N 45°48' W 122°48'2 2.9
2018-Jun-15 02:30N 45°48' W 122°50'0 0.0
2018-Jun-14 18:04N 45°48' W 122°51'0 0.0
2018-Jun-14 18:00N 45°48' W 122°51'1 1.1
2018-Jun-14 17:30N 45°48' W 122°50'0 1.0
2018-Jun-14 17:00N 45°48' W 122°50'2 4.6
2018-Jun-14 16:29N 45°51' W 122°48'1 1.7
2018-Jun-14 16:00N 45°50' W 122°47'4 7.9
2018-Jun-14 15:30N 45°46' W 122°46'4 8.1
2018-Jun-14 15:00N 45°42' W 122°46'4 7.1
2018-Jun-14 14:28N 45°39' W 122°44'4 7.9
2018-Jun-14 14:00N 45°37' W 122°39'4 8.1
2018-Jun-14 13:30N 45°36' W 122°34'4 8.1
2018-Jun-14 13:00N 45°35' W 122°28'1 0.2
2018-Jun-14 07:00N 45°34' W 122°27'0 0.2
2018-Jun-14 06:29N 45°34' W 122°27'1 2.5
2018-Jun-14 06:00N 45°35' W 122°28'1 2.9
2018-Jun-14 05:30N 45°35' W 122°30'1 3.0
2018-Jun-14 05:00N 45°35' W 122°32'1 2.9
2018-Jun-14 04:30N 45°36' W 122°34'2 3.2
2018-Jun-14 04:00N 45°36' W 122°36'2 3.0
2018-Jun-14 03:30N 45°37' W 122°38'2 3.2
2018-Jun-14 03:00N 45°37' W 122°40'2 3.4
2018-Jun-14 02:30N 45°38' W 122°43'2 3.9
2018-Jun-14 02:00N 45°39' W 122°45'2 4.0
2018-Jun-14 01:30N 45°41' W 122°46'2 4.0
2018-Jun-14 01:00N 45°43' W 122°46'2 4.1
2018-Jun-14 00:30N 45°45' W 122°46'2 4.0
2018-Jun-14 00:01N 45°47' W 122°47'2 3.8
2018-Jun-13 23:30N 45°49' W 122°47'2 3.8
2018-Jun-13 23:00N 45°50' W 122°47'1 1.2
2018-Jun-13 22:30N 45°51' W 122°48'3 5.2
2018-Jun-13 22:01N 45°49' W 122°50'1 2.3
2018-Jun-13 21:30N 45°48' W 122°51'0 0.0
2018-Jun-13 16:51N 45°48' W 122°51'0 0.0
2018-Jun-13 16:30N 45°48' W 122°51'1 2.8
2018-Jun-13 16:00N 45°48' W 122°49'3 5.7
2018-Jun-13 15:30N 45°45' W 122°49'3 5.3
2018-Jun-13 15:00N 45°43' W 122°52'3 6.2
2018-Jun-13 14:30N 45°40' W 122°52'3 6.3
2018-Jun-13 14:00N 45°38' W 122°49'3 6.7
2018-Jun-13 13:30N 45°35' W 122°46'2 0.3
2018-Jun-13 06:39N 45°34' W 122°44'0 0.2
2018-Jun-13 06:30N 45°34' W 122°44'0 0.7
2018-Jun-13 06:01N 45°34' W 122°44'2 4.9
2018-Jun-13 05:30N 45°36' W 122°47'2 4.2
2018-Jun-13 05:00N 45°37' W 122°49'2 3.8
2018-Jun-13 04:30N 45°39' W 122°50'2 3.4
2018-Jun-13 03:47N 45°41' W 122°52'1 3.7
2018-Jun-13 03:28N 45°42' W 122°52'2 3.5
2018-Jun-13 03:00N 45°44' W 122°51'2 3.0
2018-Jun-13 02:13N 45°46' W 122°49'1 2.8
2018-Jun-13 02:00N 45°46' W 122°49'2 3.3
2018-Jun-13 01:30N 45°48' W 122°48'1 2.5
2018-Jun-13 01:00N 45°48' W 122°50'1 1.5
2018-Jun-13 00:30N 45°48' W 122°51'0 0.0
2018-Jun-12 15:05N 45°48' W 122°51'0 0.5
2018-Jun-12 15:00N 45°48' W 122°51'1 2.2
2018-Jun-12 14:30N 45°48' W 122°50'1 1.5
2018-Jun-12 14:00N 45°49' W 122°50'3 5.9
2018-Jun-12 13:30N 45°52' W 122°47'4 8.3
2018-Jun-12 13:00N 45°47' W 122°47'4 8.4
2018-Jun-12 12:30N 45°43' W 122°46'4 8.2
2018-Jun-12 12:00N 45°39' W 122°45'5 8.7
2018-Jun-12 11:29N 45°37' W 122°40'4 8.3
2018-Jun-12 11:00N 45°36' W 122°34'4 8.7
2018-Jun-12 10:30N 45°35' W 122°28'1 2.9
2018-Jun-12 10:00N 45°34' W 122°27'0 0.0
2018-Jun-12 03:58N 45°34' W 122°27'0 0.1
2018-Jun-12 03:28N 45°34' W 122°27'1 2.4
2018-Jun-12 03:00N 45°34' W 122°28'2 2.9
2018-Jun-12 02:26N 45°35' W 122°30'1 3.0
2018-Jun-12 02:00N 45°35' W 122°32'2 3.1
2018-Jun-12 01:31N 45°36' W 122°34'2 3.2
2018-Jun-12 01:00N 45°36' W 122°36'2 3.1
2018-Jun-12 00:30N 45°37' W 122°38'1 2.9
2018-Jun-12 00:00N 45°37' W 122°40'2 3.3
2018-Jun-11 23:30N 45°38' W 122°42'2 3.5
2018-Jun-11 23:00N 45°39' W 122°45'2 3.8
2018-Jun-11 22:30N 45°40' W 122°46'2 3.8
2018-Jun-11 21:52N 45°43' W 122°46'1 3.9
2018-Jun-11 21:30N 45°44' W 122°46'2 3.7
2018-Jun-11 21:00N 45°46' W 122°46'2 3.5
2018-Jun-11 20:29N 45°48' W 122°47'2 3.4
2018-Jun-11 20:00N 45°49' W 122°47'2 3.4
2018-Jun-11 19:30N 45°51' W 122°47'1 2.2
2018-Jun-11 19:00N 45°50' W 122°48'2 4.6
2018-Jun-11 18:30N 45°48' W 122°50'1 1.1
2018-Jun-11 17:42N 45°48' W 122°51'0 0.0
2018-Jun-11 17:29N 45°48' W 122°51'  
Track history (hours):
 
Tides and Currents Weather Stations Pressure Air Temp Water Temp Dewpoint Dewpoint Depression Visibility Wind Speed Wind Dir Waves Ship Positions

Nancy Ann

Owner: Mark Bernert Tugboat Company, St. Helens, OR. More information available from US FCC via Universal Licensing System and Coast Guard Vessel Documentation Center.

Last reported at 2018-Jun-20 16:24 UTC. Time now 2018-Jun-20 19:01 UTC.
Position N 45°48' W 122°51'.

Type: Tug. MMSI: 338205428.

Date/timePositionNaut miles runAvg speedWind from/ knotsBaromVisibWave heightAir tempDewpointWater temp
2018-Jun-20 16:24N 45°48' W 122°51'0 0.2
2018-Jun-20 15:55N 45°48' W 122°51'0 0.2
2018-Jun-20 15:24N 45°48' W 122°51'  
2018-Jun-16 17:30N 45°48' W 122°51'1 1.4
2018-Jun-16 17:01N 45°48' W 122°50'0 0.8
2018-Jun-16 16:30N 45°48' W 122°50'3 5.1
2018-Jun-16 16:00N 45°51' W 122°48'1 3.0
2018-Jun-16 15:31N 45°49' W 122°48'4 7.7
2018-Jun-16 15:00N 45°46' W 122°46'4 7.5
2018-Jun-16 14:31N 45°42' W 122°46'3 6.8
2018-Jun-16 14:00N 45°39' W 122°44'4 7.9
2018-Jun-16 13:31N 45°37' W 122°39'4 8.4
2018-Jun-16 13:00N 45°36' W 122°34'4 8.6
2018-Jun-16 12:30N 45°34' W 122°28'1 1.8
2018-Jun-16 12:00N 45°34' W 122°27'0 0.0
2018-Jun-16 06:56N 45°34' W 122°27'0 0.0
2018-Jun-16 06:30N 45°34' W 122°27'1 2.7
2018-Jun-16 06:00N 45°35' W 122°28'2 3.4
2018-Jun-16 05:30N 45°35' W 122°31'2 3.5
2018-Jun-16 05:00N 45°36' W 122°33'2 3.4
2018-Jun-16 04:30N 45°36' W 122°35'2 3.7
2018-Jun-16 04:00N 45°36' W 122°38'2 3.8
2018-Jun-16 03:30N 45°37' W 122°40'2 4.2
2018-Jun-16 03:01N 45°38' W 122°43'2 4.5
2018-Jun-16 02:30N 45°40' W 122°46'3 4.7
2018-Jun-16 01:55N 45°42' W 122°46'2 4.7
2018-Jun-16 01:30N 45°44' W 122°46'2 4.5
2018-Jun-16 01:00N 45°46' W 122°46'2 4.4
2018-Jun-16 00:30N 45°48' W 122°48'2 4.2
2018-Jun-16 00:00N 45°51' W 122°47'1 1.2
2018-Jun-15 23:30N 45°51' W 122°48'2 4.7
2018-Jun-15 23:00N 45°48' W 122°50'1 2.1
2018-Jun-15 22:31N 45°48' W 122°51'0 0.0
2018-Jun-15 16:48N 45°48' W 122°51'0 0.1
2018-Jun-15 16:30N 45°48' W 122°51'2 2.7
2018-Jun-15 15:51N 45°48' W 122°48'2 6.2
2018-Jun-15 15:30N 45°46' W 122°49'3 5.3
2018-Jun-15 15:01N 45°44' W 122°52'3 6.1
2018-Jun-15 14:30N 45°41' W 122°52'3 6.2
2018-Jun-15 14:01N 45°38' W 122°49'3 6.3
2018-Jun-15 13:30N 45°36' W 122°46'3 5.1
2018-Jun-15 13:00N 45°34' W 122°44'0 0.0
2018-Jun-15 07:42N 45°34' W 122°44'0 0.2
2018-Jun-15 07:29N 45°34' W 122°44'1 3.0
2018-Jun-15 06:59N 45°35' W 122°45'3 5.2
2018-Jun-15 06:30N 45°37' W 122°48'2 4.1
2018-Jun-15 06:00N 45°39' W 122°49'2 4.1
2018-Jun-15 05:30N 45°40' W 122°51'2 3.9
2018-Jun-15 05:00N 45°42' W 122°52'2 3.8
2018-Jun-15 04:31N 45°44' W 122°51'2 3.4
2018-Jun-15 04:00N 45°45' W 122°50'3 3.5
2018-Jun-15 03:03N 45°48' W 122°48'0 4.6
2018-Jun-15 03:00N 45°48' W 122°48'2 2.9
2018-Jun-15 02:30N 45°48' W 122°50'0 0.0
2018-Jun-14 18:04N 45°48' W 122°51'0 0.0
2018-Jun-14 18:00N 45°48' W 122°51'1 1.1
2018-Jun-14 17:30N 45°48' W 122°50'0 1.0
2018-Jun-14 17:00N 45°48' W 122°50'2 4.6
2018-Jun-14 16:29N 45°51' W 122°48'1 1.7
2018-Jun-14 16:00N 45°50' W 122°47'4 7.9
2018-Jun-14 15:30N 45°46' W 122°46'4 8.1
2018-Jun-14 15:00N 45°42' W 122°46'4 7.1
2018-Jun-14 14:28N 45°39' W 122°44'4 7.9
2018-Jun-14 14:00N 45°37' W 122°39'4 8.1
2018-Jun-14 13:30N 45°36' W 122°34'4 8.1
2018-Jun-14 13:00N 45°35' W 122°28'1 0.2
2018-Jun-14 07:00N 45°34' W 122°27'0 0.2
2018-Jun-14 06:29N 45°34' W 122°27'1 2.5
2018-Jun-14 06:00N 45°35' W 122°28'1 2.9
2018-Jun-14 05:30N 45°35' W 122°30'1 3.0
2018-Jun-14 05:00N 45°35' W 122°32'1 2.9
2018-Jun-14 04:30N 45°36' W 122°34'2 3.2
2018-Jun-14 04:00N 45°36' W 122°36'2 3.0
2018-Jun-14 03:30N 45°37' W 122°38'2 3.2
2018-Jun-14 03:00N 45°37' W 122°40'2 3.4
2018-Jun-14 02:30N 45°38' W 122°43'2 3.9
2018-Jun-14 02:00N 45°39' W 122°45'2 4.0
2018-Jun-14 01:30N 45°41' W 122°46'2 4.0
2018-Jun-14 01:00N 45°43' W 122°46'2 4.1
2018-Jun-14 00:30N 45°45' W 122°46'2 4.0
2018-Jun-14 00:01N 45°47' W 122°47'2 3.8
2018-Jun-13 23:30N 45°49' W 122°47'2 3.8
2018-Jun-13 23:00N 45°50' W 122°47'1 1.2
2018-Jun-13 22:30N 45°51' W 122°48'3 5.2
2018-Jun-13 22:01N 45°49' W 122°50'1 2.3
2018-Jun-13 21:30N 45°48' W 122°51'0 0.0
2018-Jun-13 16:51N 45°48' W 122°51'0 0.0
2018-Jun-13 16:30N 45°48' W 122°51'1 2.8
2018-Jun-13 16:00N 45°48' W 122°49'3 5.7
2018-Jun-13 15:30N 45°45' W 122°49'3 5.3
2018-Jun-13 15:00N 45°43' W 122°52'3 6.2
2018-Jun-13 14:30N 45°40' W 122°52'3 6.3
2018-Jun-13 14:00N 45°38' W 122°49'3 6.7
2018-Jun-13 13:30N 45°35' W 122°46'2 0.3
2018-Jun-13 06:39N 45°34' W 122°44'0 0.2
2018-Jun-13 06:30N 45°34' W 122°44'0 0.7
2018-Jun-13 06:01N 45°34' W 122°44'2 4.9
2018-Jun-13 05:30N 45°36' W 122°47'2 4.2
2018-Jun-13 05:00N 45°37' W 122°49'2 3.8
2018-Jun-13 04:30N 45°39' W 122°50'2 3.4
2018-Jun-13 03:47N 45°41' W 122°52'1 3.7
2018-Jun-13 03:28N 45°42' W 122°52'2 3.5
2018-Jun-13 03:00N 45°44' W 122°51'2 3.0
2018-Jun-13 02:13N 45°46' W 122°49'1 2.8
2018-Jun-13 02:00N 45°46' W 122°49'2 3.3
2018-Jun-13 01:30N 45°48' W 122°48'1 2.5
2018-Jun-13 01:00N 45°48' W 122°50'1 1.5
2018-Jun-13 00:30N 45°48' W 122°51'0 0.0
2018-Jun-12 15:05N 45°48' W 122°51'0 0.5
2018-Jun-12 15:00N 45°48' W 122°51'1 2.2
2018-Jun-12 14:30N 45°48' W 122°50'1 1.5
2018-Jun-12 14:00N 45°49' W 122°50'3 5.9
2018-Jun-12 13:30N 45°52' W 122°47'4 8.3
2018-Jun-12 13:00N 45°47' W 122°47'4 8.4
2018-Jun-12 12:30N 45°43' W 122°46'4 8.2
2018-Jun-12 12:00N 45°39' W 122°45'5 8.7
2018-Jun-12 11:29N 45°37' W 122°40'4 8.3
2018-Jun-12 11:00N 45°36' W 122°34'4 8.7
2018-Jun-12 10:30N 45°35' W 122°28'1 2.9
2018-Jun-12 10:00N 45°34' W 122°27'0 0.0
2018-Jun-12 03:58N 45°34' W 122°27'0 0.1
2018-Jun-12 03:28N 45°34' W 122°27'1 2.4
2018-Jun-12 03:00N 45°34' W 122°28'2 2.9
2018-Jun-12 02:26N 45°35' W 122°30'1 3.0
2018-Jun-12 02:00N 45°35' W 122°32'2 3.1
2018-Jun-12 01:31N 45°36' W 122°34'2 3.2
2018-Jun-12 01:00N 45°36' W 122°36'2 3.1
2018-Jun-12 00:30N 45°37' W 122°38'1 2.9
2018-Jun-12 00:00N 45°37' W 122°40'2 3.3
2018-Jun-11 23:30N 45°38' W 122°42'2 3.5
2018-Jun-11 23:00N 45°39' W 122°45'2 3.8
2018-Jun-11 22:30N 45°40' W 122°46'2 3.8
2018-Jun-11 21:52N 45°43' W 122°46'1 3.9
2018-Jun-11 21:30N 45°44' W 122°46'2 3.7
2018-Jun-11 21:00N 45°46' W 122°46'2 3.5
2018-Jun-11 20:29N 45°48' W 122°47'2 3.4
2018-Jun-11 20:00N 45°49' W 122°47'2 3.4
2018-Jun-11 19:30N 45°51' W 122°47'1 2.2
2018-Jun-11 19:00N 45°50' W 122°48'2 4.6
2018-Jun-11 18:30N 45°48' W 122°50'1 1.1
2018-Jun-11 17:42N 45°48' W 122°51'0 0.0
2018-Jun-11 17:29N 45°48' W 122°51'  

Dump ship's entire track history